Time;durP1;ratioP1;P1;durP2;ratioP2;P2;SDS_P1;SDS_P2;PMS_P1;PMS_P2;Temp;Humidity;BMP_temperature;BMP_pressure;BME280_temperature;BME280_humidity;BME280_pressure;Samples;Min_cycle;Max_cycle;Signal;HPM_P1;HPM_P2
2023/07/12 00:00:22;;;;;;;2.92;0.13;;;17.90;99.90;;;;;;5014739;28;20026;-72
2023/07/12 00:02:48;;;;;;;1.50;0.17;;;18.00;99.90;;;;;;4997055;28;20036;-72
2023/07/12 00:05:14;;;;;;;2.08;0.10;;;17.90;99.90;;;;;;4997050;28;20029;-72
2023/07/12 00:07:39;;;;;;;1.95;0.38;;;18.00;99.90;;;;;;5014620;28;20388;-72
2023/07/12 00:10:22;;;;;;;1.40;0.10;;;18.00;99.90;;;;;;5014515;28;20026;-72
2023/07/12 00:12:47;;;;;;;3.53;0.00;;;17.90;99.90;;;;;;4996845;28;20486;-72
2023/07/12 00:15:23;;;;;;;2.00;0.00;;;18.00;99.90;;;;;;5015351;28;20026;-72
2023/07/12 00:17:49;;;;;;;3.88;0.00;;;18.00;99.90;;;;;;5014508;28;20076;-72
2023/07/12 00:20:19;;;;;;;2.58;0.13;;;18.00;99.90;;;;;;5014660;28;20033;-72
2023/07/12 00:22:45;;;;;;;5.82;0.20;;;17.90;99.90;;;;;;4996706;28;20537;-72
2023/07/12 00:25:11;;;;;;;2.85;0.15;;;18.00;99.90;;;;;;5014393;28;20083;-72
2023/07/12 00:27:37;;;;;;;0.68;0.00;;;18.00;99.90;;;;;;5014472;28;20026;-72
2023/07/12 00:30:20;;;;;;;2.17;0.10;;;18.00;99.90;;;;;;5014311;28;20049;-72
2023/07/12 00:32:52;;;;;;;1.08;0.08;;;17.90;99.90;;;;;;5014199;28;20048;-72
2023/07/12 00:35:22;;;;;;;2.10;0.15;;;17.90;99.90;;;;;;5014477;28;20448;-72
2023/07/12 00:37:49;;;;;;;1.52;0.13;;;18.00;99.90;;;;;;5014600;28;20422;-72
2023/07/12 00:40:36;;;;;;;1.70;0.00;;;17.90;99.90;;;;;;5014108;28;20463;-72
2023/07/12 00:43:15;;;;;;;3.28;0.22;;;17.90;99.90;;;;;;5013825;28;20825;-72
2023/07/12 00:45:43;;;;;;;2.83;0.65;;;18.00;99.90;;;;;;5014584;28;20070;-72
2023/07/12 00:48:13;;;;;;;2.10;0.00;;;18.00;99.90;;;;;;4996468;28;20029;-72
2023/07/12 00:50:39;;;;;;;1.42;0.03;;;18.00;99.90;;;;;;5014146;28;20066;-72
2023/07/12 00:53:05;;;;;;;5.45;0.32;;;18.00;99.90;;;;;;5013740;28;20037;-72
2023/07/12 00:55:57;;;;;;;1.50;0.30;;;18.10;99.90;;;;;;5014445;28;20369;-72
2023/07/12 00:58:24;;;;;;;6.85;0.38;;;18.10;99.90;;;;;;5013748;28;20022;-72
2023/07/12 01:00:52;;;;;;;2.58;0.00;;;18.10;99.90;;;;;;5013884;28;20037;-72
2023/07/12 01:03:20;;;;;;;1.95;0.22;;;18.10;99.90;;;;;;5013108;28;20045;-72
2023/07/12 01:05:46;;;;;;;;;;;18.00;99.90;;;;;;5014023;28;20101;-72
2023/07/12 01:08:13;;;;;;;3.03;0.10;;;18.00;99.90;;;;;;5013627;28;20341;-72
2023/07/12 01:10:39;;;;;;;1.20;0.22;;;18.10;99.90;;;;;;5013572;28;20026;-72
2023/07/12 01:13:06;;;;;;;1.23;0.00;;;18.00;99.90;;;;;;5013546;28;20037;-72
2023/07/12 01:15:32;;;;;;;3.65;0.32;;;18.20;99.90;;;;;;5013608;28;20072;-72
2023/07/12 01:17:59;;;;;;;1.77;0.17;;;18.40;99.90;;;;;;5014103;28;20135;-72
2023/07/12 01:20:25;;;;;;;3.08;0.50;;;18.40;99.90;;;;;;5013774;28;20390;-72
2023/07/12 01:22:52;;;;;;;0.93;0.10;;;18.50;99.90;;;;;;4995861;28;20018;-72
2023/07/12 01:25:18;;;;;;;6.63;0.17;;;18.50;99.90;;;;;;5013396;28;20026;-72
2023/07/12 01:27:43;;;;;;;2.30;0.05;;;18.60;99.90;;;;;;5013543;28;20477;-72
2023/07/12 01:30:09;;;;;;;4.90;0.10;;;18.70;99.90;;;;;;5013350;28;20037;-72
2023/07/12 01:32:37;;;;;;;3.83;0.17;;;18.70;99.90;;;;;;5013565;28;20129;-72
2023/07/12 01:35:02;;;;;;;4.43;0.32;;;18.60;99.90;;;;;;5013274;28;20018;-72
2023/07/12 01:37:28;;;;;;;3.20;0.47;;;18.60;99.90;;;;;;5013325;28;20068;-72
2023/07/12 01:39:54;;;;;;;4.78;0.10;;;18.70;99.90;;;;;;5014010;28;20029;-72
2023/07/12 01:42:22;;;;;;;2.85;0.17;;;18.60;99.90;;;;;;5013802;28;20030;-72
2023/07/12 01:44:48;;;;;;;4.88;0.75;;;18.50;99.90;;;;;;5013139;28;20455;-72
2023/07/12 01:47:13;;;;;;;3.67;0.10;;;18.40;99.90;;;;;;4995640;28;20025;-72
2023/07/12 01:49:39;;;;;;;7.82;0.50;;;18.20;99.90;;;;;;5013195;28;20108;-72
2023/07/12 01:52:05;;;;;;;8.30;0.15;;;18.10;99.90;;;;;;4995708;28;20501;-72
2023/07/12 01:54:30;;;;;;;6.15;0.70;;;17.90;99.90;;;;;;5013268;28;20474;-71
2023/07/12 01:56:56;;;;;;;5.90;0.32;;;17.90;99.90;;;;;;5013711;28;20018;-72
2023/07/12 01:59:24;;;;;;;7.50;0.47;;;17.80;99.90;;;;;;5013240;28;20026;-72
2023/07/12 02:01:49;;;;;;;2.97;0.22;;;17.90;99.90;;;;;;5013514;28;20433;-72
2023/07/12 02:04:15;;;;;;;2.80;0.08;;;17.80;99.90;;;;;;5013670;28;20080;-72
2023/07/12 02:06:41;;;;;;;7.82;0.68;;;17.70;99.90;;;;;;4995530;28;20022;-72
2023/07/12 02:09:06;;;;;;;3.75;0.13;;;17.80;99.90;;;;;;4995435;28;20552;-72
2023/07/12 02:11:32;;;;;;;11.10;0.28;;;17.70;99.90;;;;;;4995324;28;20509;-72
2023/07/12 02:13:58;;;;;;;4.50;0.38;;;17.80;99.90;;;;;;4997834;28;20025;-72
2023/07/12 02:16:23;;;;;;;3.65;0.52;;;17.70;99.90;;;;;;5016724;28;20029;-72
2023/07/12 02:18:49;;;;;;;3.53;0.60;;;17.70;99.90;;;;;;5017260;28;20052;-72
2023/07/12 02:21:14;;;;;;;4.38;0.55;;;17.70;99.90;;;;;;5016641;28;20026;-72
2023/07/12 02:23:40;;;;;;;10.75;0.77;;;17.70;99.90;;;;;;4999016;28;20144;-72
2023/07/12 02:26:05;;;;;;;5.35;0.20;;;17.60;99.90;;;;;;5016676;28;20492;-74
2023/07/12 02:28:31;;;;;;;4.57;0.57;;;17.50;99.90;;;;;;5016552;28;20363;-74
2023/07/12 02:31:20;;;;;;;4.40;0.00;;;17.50;99.90;;;;;;5016503;28;20366;-74
2023/07/12 02:33:45;;;;;;;4.50;0.30;;;17.50;99.90;;;;;;5017219;28;20038;-74
2023/07/12 02:36:11;;;;;;;12.00;0.63;;;17.40;99.90;;;;;;5016499;28;20026;-74
2023/07/12 02:38:36;;;;;;;6.05;0.55;;;17.40;99.90;;;;;;5016394;28;20385;-74
2023/07/12 02:41:02;;;;;;;3.58;0.20;;;17.30;99.90;;;;;;5016419;28;20371;-74
2023/07/12 02:43:27;;;;;;;4.47;0.30;;;17.30;99.90;;;;;;5016160;28;20033;-74
2023/07/12 02:45:56;;;;;;;7.60;0.52;;;17.30;99.90;;;;;;5016301;28;20030;-74
2023/07/12 02:48:22;;;;;;;3.47;0.10;;;17.30;99.90;;;;;;5016193;28;20030;-74
2023/07/12 02:50:47;;;;;;;7.35;0.30;;;17.20;99.90;;;;;;5016234;28;20367;-74
2023/07/12 02:53:17;;;;;;;2.63;0.43;;;17.20;99.90;;;;;;5016150;28;20014;-74
2023/07/12 02:55:43;;;;;;;2.25;0.45;;;17.30;99.90;;;;;;4998445;28;20084;-74
2023/07/12 02:58:09;;;;;;;6.75;0.17;;;17.70;99.90;;;;;;5015942;28;20017;-74
2023/07/12 03:00:34;;;;;;;7.07;0.55;;;17.30;99.90;;;;;;5016101;28;20018;-74
2023/07/12 03:03:00;;;;;;;1.73;0.28;;;17.30;99.90;;;;;;5015929;28;20439;-74
2023/07/12 03:05:25;;;;;;;5.82;0.52;;;17.80;99.90;;;;;;5015929;28;20545;-74
2023/07/12 03:07:57;;;;;;;3.63;0.90;;;17.60;99.90;;;;;;5015829;28;20132;-74
2023/07/12 03:10:22;;;;;;;5.13;0.13;;;17.60;99.90;;;;;;5015674;28;20041;-74
2023/07/12 03:12:48;;;;;;;4.05;0.50;;;17.70;99.90;;;;;;4997956;28;20018;-74
2023/07/12 03:15:13;;;;;;;7.35;0.63;;;17.60;99.90;;;;;;4998175;28;20029;-74
2023/07/12 03:17:39;;;;;;;6.32;0.95;;;17.60;99.90;;;;;;5015605;28;20029;-74
2023/07/12 03:20:05;;;;;;;5.90;0.52;;;17.50;99.90;;;;;;5016173;28;20520;-74
2023/07/12 03:22:31;;;;;;;4.18;1.05;;;17.40;99.90;;;;;;4997958;28;20026;-74
2023/07/12 03:24:56;;;;;;;6.30;0.57;;;17.40;99.90;;;;;;5014484;28;20032;-74
2023/07/12 03:27:22;;;;;;;9.23;0.77;;;17.50;99.90;;;;;;5015511;28;20104;-74
2023/07/12 03:29:47;;;;;;;7.90;0.90;;;17.40;99.90;;;;;;4997815;28;20060;-74
2023/07/12 03:32:14;;;;;;;5.25;0.77;;;17.70;99.90;;;;;;5015883;28;20018;-74
2023/07/12 03:34:39;;;;;;;5.10;1.20;;;17.40;99.90;;;;;;5015229;28;20018;-74
2023/07/12 03:37:05;;;;;;;7.95;1.08;;;17.60;99.90;;;;;;5015416;28;20398;-74
2023/07/12 03:39:30;;;;;;;6.88;1.40;;;17.60;99.90;;;;;;5015926;28;20088;-74
2023/07/12 03:41:56;;;;;;;7.40;1.15;;;17.60;99.90;;;;;;5015209;28;20038;-74
2023/07/12 03:44:22;;;;;;;9.98;1.38;;;17.60;99.90;;;;;;4997494;28;20108;-74
2023/07/12 03:46:47;;;;;;;3.60;0.95;;;17.50;99.90;;;;;;5015098;28;20113;-74
2023/07/12 03:49:13;;;;;;;5.00;0.95;;;17.50;99.90;;;;;;5015074;28;20105;-74
2023/07/12 03:51:38;;;;;;;7.20;1.23;;;17.60;99.90;;;;;;5014901;28;20026;-74
2023/07/12 03:54:04;;;;;;;8.45;1.40;;;17.50;99.90;;;;;;5014858;28;20091;-74
2023/07/12 03:56:30;;;;;;;5.35;1.00;;;17.50;99.90;;;;;;5014968;28;20029;-74
2023/07/12 03:58:55;;;;;;;15.52;2.20;;;17.50;99.90;;;;;;5014973;28;20034;-74
2023/07/12 04:01:21;;;;;;;9.82;1.35;;;17.50;99.90;;;;;;5014969;28;20390;-74
2023/07/12 04:03:46;;;;;;;5.80;1.00;;;17.50;99.90;;;;;;5014691;28;20022;-74
2023/07/12 04:06:12;;;;;;;4.57;1.38;;;17.40;99.90;;;;;;5015331;28;20562;-74
2023/07/12 04:08:38;;;;;;;7.03;1.42;;;17.40;99.90;;;;;;5014651;28;20532;-74
2023/07/12 04:11:05;;;;;;;6.82;1.13;;;17.50;99.90;;;;;;5015191;28;20109;-74
2023/07/12 04:13:31;;;;;;;5.80;1.17;;;17.40;99.90;;;;;;5014647;28;20028;-74
2023/07/12 04:15:59;;;;;;;4.32;0.77;;;17.50;99.90;;;;;;5014549;28;20104;-74
2023/07/12 04:18:26;;;;;;;3.50;0.85;;;17.40;99.90;;;;;;5014642;28;20532;-74
2023/07/12 04:20:53;;;;;;;5.60;0.40;;;17.40;99.90;;;;;;5014505;28;20061;-74
2023/07/12 04:23:19;;;;;;;9.55;1.15;;;17.40;99.90;;;;;;5014347;28;20022;-73
2023/07/12 04:25:44;;;;;;;6.13;1.10;;;17.40;99.90;;;;;;5014436;28;20175;-74
2023/07/12 04:28:10;;;;;;;4.93;0.80;;;17.40;99.90;;;;;;5014330;28;20021;-74
2023/07/12 04:30:36;;;;;;;14.38;0.95;;;17.30;99.90;;;;;;5014311;28;20022;-75
2023/07/12 04:33:03;;;;;;;1.85;0.80;;;17.30;99.90;;;;;;5014209;28;20029;-75
2023/07/12 04:35:29;;;;;;;7.03;1.00;;;17.10;99.90;;;;;;5013962;28;20017;-75
2023/07/12 04:37:54;;;;;;;6.03;1.23;;;17.30;99.90;;;;;;5014257;28;20105;-75
2023/07/12 04:40:20;;;;;;;9.05;1.45;;;17.30;99.90;;;;;;5014202;28;20490;-75
2023/07/12 04:42:46;;;;;;;5.93;1.95;;;17.30;99.90;;;;;;5014136;28;20036;-75
2023/07/12 04:45:13;;;;;;;4.57;1.42;;;17.40;99.90;;;;;;5014164;28;20112;-75
2023/07/12 04:47:39;;;;;;;3.63;1.23;;;17.40;99.90;;;;;;5014066;28;20072;-75
2023/07/12 04:50:07;;;;;;;15.15;2.28;;;17.40;99.90;;;;;;5014183;28;20032;-75
2023/07/12 04:52:33;;;;;;;5.90;1.70;;;17.50;99.90;;;;;;5014261;28;20038;-75
2023/07/12 04:55:01;;;;;;;5.63;1.17;;;17.50;99.90;;;;;;5013806;28;20061;-75
2023/07/12 04:57:27;;;;;;;7.30;1.45;;;17.40;99.90;;;;;;5014360;28;20045;-75
2023/07/12 04:59:52;;;;;;;12.38;2.38;;;17.30;99.90;;;;;;5013955;28;20061;-75
2023/07/12 05:02:18;;;;;;;7.30;2.05;;;17.40;99.90;;;;;;4996197;28;20018;-75
2023/07/12 05:04:44;;;;;;;7.35;1.65;;;17.40;99.90;;;;;;5013753;28;20033;-75
2023/07/12 05:07:09;;;;;;;9.05;1.58;;;17.40;99.90;;;;;;5014457;28;20054;-75
2023/07/12 05:09:38;;;;;;;5.47;2.03;;;17.30;99.90;;;;;;4996043;28;20025;-75
2023/07/12 05:12:04;;;;;;;6.32;2.05;;;17.40;99.90;;;;;;5014215;28;20034;-75
2023/07/12 05:14:30;;;;;;;5.30;1.25;;;17.50;99.90;;;;;;5013429;28;20022;-75
2023/07/12 05:16:55;;;;;;;5.78;1.77;;;17.50;99.90;;;;;;4995980;28;20032;-75
2023/07/12 05:19:21;;;;;;;5.50;1.70;;;17.60;99.90;;;;;;5013623;28;20053;-75
2023/07/12 05:21:47;;;;;;;4.55;1.25;;;17.60;99.90;;;;;;5013467;28;20029;-75
2023/07/12 05:24:12;;;;;;;7.70;1.67;;;17.70;99.90;;;;;;5013494;28;20018;-75
2023/07/12 05:26:38;;;;;;;3.92;1.27;;;17.80;99.90;;;;;;4995904;28;20116;-75
2023/07/12 05:29:04;;;;;;;9.15;2.33;;;17.90;99.90;;;;;;4995905;28;20067;-76
2023/07/12 05:31:29;;;;;;;6.00;1.48;;;17.90;99.90;;;;;;5013532;28;20049;-75
2023/07/12 05:33:55;;;;;;;9.18;1.92;;;17.90;99.90;;;;;;5013616;28;20394;-75
2023/07/12 05:36:20;;;;;;;4.18;1.55;;;18.70;99.90;;;;;;5013437;28;20432;-75
2023/07/12 05:38:46;;;;;;;9.38;1.67;;;17.80;99.90;;;;;;5013466;28;20018;-75
2023/07/12 05:41:11;;;;;;;7.97;2.88;;;17.80;99.90;;;;;;5013810;28;20026;-75
2023/07/12 05:43:39;;;;;;;8.15;1.95;;;17.80;99.90;;;;;;5013590;28;20045;-75
2023/07/12 05:46:06;;;;;;;7.23;1.73;;;17.80;99.90;;;;;;5013395;28;20022;-75
2023/07/12 05:48:31;;;;;;;7.53;1.85;;;17.80;99.90;;;;;;5015515;28;20026;-76
2023/07/12 05:50:59;;;;;;;8.60;2.15;;;17.90;99.90;;;;;;5017519;28;20528;-75
2023/07/12 05:53:24;;;;;;;8.10;1.67;;;18.00;99.90;;;;;;4999550;28;20025;-76
2023/07/12 05:55:57;;;;;;;11.25;1.30;;;18.00;99.90;;;;;;4999408;28;20421;-75
2023/07/12 05:58:24;;;;;;;13.30;2.20;;;18.00;99.90;;;;;;5017066;28;20026;-75
2023/07/12 06:00:55;;;;;;;7.20;2.17;;;18.10;99.90;;;;;;5016975;28;20022;-75
2023/07/12 06:03:21;;;;;;;6.43;1.90;;;18.10;99.90;;;;;;5016958;28;20022;-75
2023/07/12 06:05:46;;;;;;;8.30;1.55;;;18.20;99.90;;;;;;5017558;28;20373;-75
2023/07/12 06:08:12;;;;;;;9.98;1.48;;;18.30;99.90;;;;;;5017023;28;20029;-75
2023/07/12 06:10:38;;;;;;;7.03;1.38;;;18.40;99.90;;;;;;4998538;28;20121;-76
2023/07/12 06:13:03;;;;;;;6.85;2.53;;;18.30;99.90;;;;;;4998313;28;20018;-75
2023/07/12 06:15:29;;;;;;;6.53;1.58;;;18.40;99.90;;;;;;5017358;28;20026;-74
2023/07/12 06:17:55;;;;;;;9.38;2.08;;;18.40;99.90;;;;;;5016888;28;20025;-75
2023/07/12 06:20:20;;;;;;;9.00;1.88;;;18.40;99.90;;;;;;5015632;28;20026;-75
2023/07/12 06:22:46;;;;;;;5.25;2.20;;;18.50;99.90;;;;;;4998766;28;20109;-75
2023/07/12 06:25:11;;;;;;;6.90;1.83;;;18.60;99.90;;;;;;5016780;28;20025;-75
2023/07/12 06:27:37;;;;;;;5.15;1.73;;;18.70;99.90;;;;;;5017138;28;20049;-75
2023/07/12 06:30:03;;;;;;;6.75;1.40;;;18.80;99.90;;;;;;5016556;28;20397;-75
2023/07/12 06:32:29;;;;;;;7.90;1.52;;;18.80;99.90;;;;;;5016515;28;20026;-76
2023/07/12 06:34:54;;;;;;;5.72;1.25;;;18.80;99.90;;;;;;5016492;28;20033;-75
2023/07/12 06:37:20;;;;;;;7.15;1.65;;;19.50;99.90;;;;;;4998833;28;20021;-76
2023/07/12 06:39:46;;;;;;;6.35;1.23;;;18.70;99.90;;;;;;5016369;28;20026;-75
2023/07/12 06:42:11;;;;;;;6.82;1.63;;;18.70;99.90;;;;;;5016330;28;20026;-74
2023/07/12 06:44:37;;;;;;;9.05;1.40;;;18.60;99.90;;;;;;5016167;28;20100;-75
2023/07/12 06:47:03;;;;;;;10.45;1.20;;;18.50;99.90;;;;;;5016358;28;20100;-75
2023/07/12 06:49:28;;;;;;;5.78;1.23;;;18.40;99.90;;;;;;5016128;28;20025;-74
2023/07/12 06:51:55;;;;;;;7.97;1.02;;;18.40;99.90;;;;;;5016157;28;20424;-74
2023/07/12 06:54:21;;;;;;;8.52;1.70;;;18.30;99.90;;;;;;5016381;28;20014;-75
2023/07/12 06:56:48;;;;;;;5.10;1.23;;;18.30;99.90;;;;;;5016196;28;20030;-75
2023/07/12 06:59:13;;;;;;;8.90;0.93;;;18.30;99.90;;;;;;5015978;28;20390;-74
2023/07/12 07:01:39;;;;;;;12.07;1.58;;;18.50;99.90;;;;;;5016001;28;20022;-74
2023/07/12 07:04:05;;;;;;;8.48;1.67;;;18.50;99.90;;;;;;5016505;28;20410;-73
2023/07/12 07:06:31;;;;;;;6.35;1.27;;;18.60;99.90;;;;;;5015817;28;20021;-74
2023/07/12 07:08:56;;;;;;;6.65;0.75;;;18.70;99.90;;;;;;5015846;28;20489;-74
2023/07/12 07:11:22;;;;;;;9.70;1.15;;;18.90;99.90;;;;;;5015781;28;20025;-74
2023/07/12 07:13:50;;;;;;;5.65;0.95;;;19.00;99.90;;;;;;5015701;28;20030;-73
2023/07/12 07:16:16;;;;;;;3.03;0.83;;;19.20;99.90;;;;;;5015749;28;20025;-74
2023/07/12 07:18:42;;;;;;;8.73;0.77;;;19.30;99.90;;;;;;5015611;28;20104;-74
2023/07/12 07:21:08;;;;;;;11.15;1.55;;;19.40;99.90;;;;;;5015730;28;20100;-74
2023/07/12 07:23:33;;;;;;;3.40;0.55;;;19.40;99.90;;;;;;5016157;28;20480;-74
2023/07/12 07:26:07;;;;;;;10.52;1.20;;;19.40;99.90;;;;;;5015548;28;20092;-74
2023/07/12 07:28:33;;;;;;;7.93;0.90;;;19.50;99.90;;;;;;4997852;28;20022;-74
2023/07/12 07:31:00;;;;;;;11.48;1.23;;;19.50;99.90;;;;;;5015390;28;20064;-74
2023/07/12 07:33:26;;;;;;;7.38;0.43;;;19.50;99.90;;;;;;5015316;28;20022;-74
2023/07/12 07:35:53;;;;;;;11.48;0.50;;;19.60;99.90;;;;;;5015341;28;20048;-74
2023/07/12 07:38:18;;;;;;;5.60;1.05;;;19.40;99.90;;;;;;5015274;28;20017;-73
2023/07/12 07:40:44;;;;;;;3.90;0.52;;;19.50;99.90;;;;;;5015287;28;20084;-74
2023/07/12 07:43:14;;;;;;;8.32;1.15;;;19.70;99.90;;;;;;5015056;28;20497;-74
2023/07/12 07:45:41;;;;;;;7.95;0.45;;;19.70;99.90;;;;;;4997554;28;20068;-74
2023/07/12 07:48:06;;;;;;;4.13;0.47;;;19.70;99.90;;;;;;4997551;28;20114;-74
2023/07/12 07:50:32;;;;;;;4.43;0.65;;;19.70;99.90;;;;;;5015083;28;20104;-74
2023/07/12 07:52:57;;;;;;;8.43;0.95;;;19.80;99.90;;;;;;5014851;28;20033;-74
2023/07/12 07:55:23;;;;;;;10.05;1.67;;;20.10;99.90;;;;;;5015015;28;20022;-74
2023/07/12 07:57:49;;;;;;;8.80;0.65;;;20.40;99.90;;;;;;5014970;28;20037;-74
2023/07/12 08:00:15;;;;;;;6.82;0.82;;;20.50;99.90;;;;;;5014892;28;20022;-74
2023/07/12 08:02:42;;;;;;;4.30;0.90;;;20.60;99.90;;;;;;4997111;28;20026;-74
2023/07/12 08:05:08;;;;;;;12.80;0.75;;;20.50;99.90;;;;;;5014757;28;20026;-76
2023/07/12 08:07:39;;;;;;;7.07;0.50;;;20.40;99.90;;;;;;5014821;28;20030;-75
2023/07/12 08:10:07;;;;;;;7.88;1.45;;;20.40;99.90;;;;;;4996838;28;20041;-73
2023/07/12 08:12:32;;;;;;;6.57;0.93;;;20.50;99.90;;;;;;5014193;28;20030;-73
2023/07/12 08:14:58;;;;;;;10.20;0.40;;;20.60;99.90;;;;;;5014525;28;20029;-73
2023/07/12 08:17:23;;;;;;;5.90;0.95;;;20.80;99.90;;;;;;5014566;28;20124;-73
2023/07/12 08:19:51;;;;;;;6.25;0.70;;;20.80;99.90;;;;;;5014539;28;20029;-73
2023/07/12 08:22:19;;;;;;;7.35;0.50;;;20.70;99.90;;;;;;4996824;28;20516;-73
2023/07/12 08:24:46;;;;;;;4.78;0.20;;;20.60;99.90;;;;;;4996767;28;20469;-73
2023/07/12 08:27:12;;;;;;;9.90;0.60;;;20.50;99.90;;;;;;5014359;28;20018;-73
2023/07/12 08:29:38;;;;;;;2.63;0.40;;;20.40;99.90;;;;;;5014342;28;20489;-73
2023/07/12 08:32:04;;;;;;;3.75;0.25;;;20.40;99.90;;;;;;5014391;28;20022;-73
2023/07/12 08:34:30;;;;;;;1.60;0.20;;;20.30;99.90;;;;;;5014301;28;20022;-73
2023/07/12 08:36:55;;;;;;;5.18;0.40;;;20.30;99.90;;;;;;5014211;28;20018;-73
2023/07/12 08:39:22;;;;;;;6.55;0.57;;;20.40;99.90;;;;;;5014222;28;20041;-73
2023/07/12 08:41:48;;;;;;;5.25;1.00;;;20.50;99.90;;;;;;5014266;28;20037;-73
2023/07/12 08:44:14;;;;;;;7.07;0.47;;;20.40;99.90;;;;;;4996367;28;20044;-73
2023/07/12 08:46:49;;;;;;;6.18;0.60;;;20.20;99.90;;;;;;4996384;28;20026;-73
2023/07/12 08:49:16;;;;;;;11.30;1.52;;;20.10;99.90;;;;;;5013911;28;20026;-73
2023/07/12 08:51:42;;;;;;;7.45;0.52;;;20.10;99.90;;;;;;5013966;28;20022;-73
2023/07/12 08:54:27;;;;;;;9.20;0.77;;;20.30;99.90;;;;;;5014023;28;20037;-73
2023/07/12 08:57:19;;;;;;;4.75;0.52;;;20.60;99.90;;;;;;5013901;28;20018;-73
2023/07/12 09:00:08;;;;;;;6.72;0.32;;;21.00;99.90;;;;;;5013477;28;20523;-74
2023/07/12 09:02:34;;;;;;;3.13;0.47;;;21.60;99.90;;;;;;5014006;28;20108;-73
2023/07/12 09:05:14;;;;;;;4.22;0.40;;;21.90;99.90;;;;;;5013733;28;20153;-73
2023/07/12 09:07:53;;;;;;;7.00;0.68;;;21.90;99.90;;;;;;5014123;28;20026;-73
2023/07/12 09:10:46;;;;;;;5.03;0.28;;;22.00;99.90;;;;;;5013728;28;20026;-73
2023/07/12 09:13:13;;;;;;;5.07;0.70;;;21.60;99.90;;;;;;5009549;28;20398;-73
2023/07/12 09:15:50;;;;;;;5.25;0.40;;;21.40;99.90;;;;;;5013818;28;20432;-73
2023/07/12 09:18:36;;;;;;;2.78;0.00;;;21.20;99.90;;;;;;5013711;28;20489;-73
2023/07/12 09:21:22;;;;;;;3.05;0.10;;;20.70;99.90;;;;;;4996018;28;20030;-73
2023/07/12 09:23:48;;;;;;;2.80;0.10;;;20.60;99.90;;;;;;4995130;28;20079;-73
2023/07/12 09:26:29;;;;;;;5.78;1.10;;;20.60;99.90;;;;;;5013543;28;20105;-73
2023/07/12 09:29:04;;;;;;;5.60;0.90;;;20.40;99.90;;;;;;5013611;28;20033;-73
2023/07/12 09:31:32;;;;;;;3.75;0.10;;;20.20;99.90;;;;;;5013652;28;20026;-73
2023/07/12 09:34:03;;;;;;;1.92;0.10;;;20.30;99.90;;;;;;5013460;28;20109;-73
2023/07/12 09:36:29;;;;;;;2.20;0.38;;;20.50;99.90;;;;;;4995897;28;20022;-73
2023/07/12 09:39:05;;;;;;;3.47;0.22;;;20.80;99.90;;;;;;5013367;28;20022;-73
2023/07/12 09:41:31;;;;;;;1.30;0.20;;;20.80;99.90;;;;;;5013482;28;20024;-73
2023/07/12 09:44:01;;;;;;;5.75;0.00;;;20.70;99.90;;;;;;5013188;28;20038;-73
2023/07/12 09:46:55;;;;;;;3.05;0.38;;;20.80;99.90;;;;;;5013428;28;20045;-73
2023/07/12 09:49:31;;;;;;;5.13;0.30;;;21.20;99.90;;;;;;5013144;28;20026;-73
2023/07/12 09:52:16;;;;;;;1.23;0.00;;;21.50;99.90;;;;;;4995845;28;20490;-73
2023/07/12 09:55:19;;;;;;;1.52;0.00;;;21.80;99.90;;;;;;4995744;28;20026;-73
2023/07/12 09:58:13;;;;;;;2.30;0.00;;;22.10;99.90;;;;;;4995592;28;20029;-73
2023/07/12 10:01:02;;;;;;;3.22;0.40;;;22.20;99.90;;;;;;5013305;28;20030;-73
2023/07/12 10:03:43;;;;;;;4.97;0.45;;;22.50;99.90;;;;;;5012717;28;20038;-73
2023/07/12 10:06:32;;;;;;;3.67;0.30;;;22.90;99.90;;;;;;4995476;28;20037;-73
2023/07/12 10:09:13;;;;;;;2.05;0.10;;;22.90;99.90;;;;;;5013113;28;20526;-73
2023/07/12 10:11:57;;;;;;;6.43;0.57;;;22.80;99.90;;;;;;5013222;28;20436;-73
2023/07/12 10:14:31;;;;;;;3.80;0.20;;;22.70;99.90;;;;;;5013357;28;20028;-73
2023/07/12 10:16:57;;;;;;;1.50;0.10;;;22.50;99.90;;;;;;5013169;28;20068;-73
2023/07/12 10:19:25;;;;;;;4.45;0.17;;;22.40;99.90;;;;;;4995543;28;20121;-73
2023/07/12 10:21:54;;;;;;;2.42;0.00;;;22.40;99.90;;;;;;5013081;28;20018;-73
2023/07/12 10:24:33;;;;;;;2.05;0.00;;;22.50;99.90;;;;;;5012765;28;20429;-73
2023/07/12 10:27:03;;;;;;;2.83;0.10;;;22.60;99.90;;;;;;4995473;28;20189;-73
2023/07/12 10:29:47;;;;;;;2.63;0.47;;;22.50;99.90;;;;;;5012938;28;20026;-73
2023/07/12 10:32:29;;;;;;;3.15;0.08;;;22.70;99.90;;;;;;5013420;28;20025;-73
2023/07/12 10:35:10;;;;;;;2.85;0.10;;;22.60;99.90;;;;;;4997502;28;20498;-75
2023/07/12 10:38:00;;;;;;;2.78;0.30;;;22.40;99.90;;;;;;5016523;28;20108;-75
2023/07/12 10:40:35;;;;;;;3.35;0.10;;;22.40;99.90;;;;;;5016388;28;20084;-76
2023/07/12 10:43:07;;;;;;;3.42;0.20;;;22.90;99.90;;;;;;5016174;28;20028;-73
2023/07/12 10:45:37;;;;;;;3.35;0.00;;;22.90;99.90;;;;;;5016306;28;20029;-73
2023/07/12 10:48:04;;;;;;;4.78;0.20;;;23.10;99.90;;;;;;5016182;28;20022;-75
2023/07/12 10:50:44;;;;;;;3.20;0.07;;;23.10;99.90;;;;;;5016200;28;20026;-75
2023/07/12 10:53:20;;;;;;;2.30;0.13;;;22.80;99.90;;;;;;5016182;28;20025;-75
2023/07/12 10:56:11;;;;;;;2.53;0.22;;;22.70;99.90;;;;;;4998530;28;20057;-75
2023/07/12 10:58:58;;;;;;;3.15;0.22;;;22.50;99.90;;;;;;4996912;28;20034;-75
2023/07/12 11:01:43;;;;;;;1.63;0.27;;;22.20;99.90;;;;;;5016219;28;20034;-75
2023/07/12 11:04:18;;;;;;;3.05;0.63;;;22.10;99.90;;;;;;5015908;28;20730;-75
2023/07/12 11:07:15;;;;;;;1.85;0.00;;;22.40;99.90;;;;;;5016016;28;20512;-75
2023/07/12 11:09:54;;;;;;;1.55;0.00;;;22.70;99.90;;;;;;5015946;28;20104;-75
2023/07/12 11:12:31;;;;;;;;;;;23.10;99.90;;;;;;5016270;28;20497;-75
2023/07/12 11:15:11;;;;;;;1.50;0.30;;;23.40;99.90;;;;;;5015663;28;19959;-75
2023/07/12 11:17:53;;;;;;;1.65;0.13;;;23.70;99.90;;;;;;5015875;28;20030;-75
2023/07/12 11:20:24;;;;;;;0.60;0.00;;;23.60;99.90;;;;;;4998092;28;20394;-75
2023/07/12 11:22:59;;;;;;;0.85;0.00;;;23.70;99.90;;;;;;5015614;28;20026;-75
2023/07/12 11:25:38;;;;;;;2.53;0.15;;;23.70;99.90;;;;;;5015644;28;20096;-75
2023/07/12 11:28:24;;;;;;;1.95;0.00;;;23.70;99.90;;;;;;5015586;28;20097;-75
2023/07/12 11:31:26;;;;;;;2.80;0.00;;;24.10;99.90;;;;;;5015409;28;20122;-75
2023/07/12 11:34:05;;;;;;;1.35;0.08;;;24.20;99.90;;;;;;4997920;28;20517;-75
2023/07/12 11:36:34;;;;;;;3.00;0.10;;;24.00;99.90;;;;;;5015923;28;20018;-75
2023/07/12 11:39:02;;;;;;;2.63;0.28;;;24.00;99.90;;;;;;5015290;28;20026;-75
2023/07/12 11:41:28;;;;;;;4.27;0.10;;;24.10;99.90;;;;;;5015747;28;20037;-75
2023/07/12 11:44:03;;;;;;;1.55;0.10;;;24.40;99.90;;;;;;5015249;28;20339;-75
2023/07/12 11:46:33;;;;;;;2.90;0.28;;;24.00;99.90;;;;;;5014288;28;20053;-75
2023/07/12 11:49:20;;;;;;;7.38;0.25;;;23.80;99.90;;;;;;5015609;28;20077;-75
2023/07/12 11:51:49;;;;;;;1.33;0.15;;;23.60;99.90;;;;;;5015155;28;20033;-75
2023/07/12 11:54:23;;;;;;;0.55;0.10;;;23.70;99.90;;;;;;5014997;28;20501;-75
2023/07/12 11:56:52;;;;;;;1.45;0.15;;;23.40;99.90;;;;;;5014931;28;20021;-75
2023/07/12 11:59:22;;;;;;;;;;;23.30;99.90;;;;;;5015351;28;20535;-75
2023/07/12 12:01:49;;;;;;;4.13;0.20;;;23.40;99.90;;;;;;5014983;28;19910;-74
2023/07/12 12:04:30;;;;;;;3.42;0.40;;;23.60;99.90;;;;;;5014824;28;20025;-74
2023/07/12 12:07:06;;;;;;;4.35;0.30;;;23.70;99.90;;;;;;5014938;28;20389;-74
2023/07/12 12:09:37;;;;;;;5.05;0.10;;;24.20;99.90;;;;;;5015319;28;20060;-71
2023/07/12 12:12:07;;;;;;;2.72;0.00;;;24.80;99.90;;;;;;5014827;28;20437;-74
2023/07/12 12:14:42;;;;;;;5.45;0.10;;;25.20;99.90;;;;;;5015159;28;20041;-74
2023/07/12 12:17:29;;;;;;;2.35;0.08;;;25.20;98.80;;;;;;5014694;28;20018;-74
2023/07/12 12:20:25;;;;;;;3.83;0.10;;;25.30;99.90;;;;;;5014657;28;20030;-74
2023/07/12 12:23:04;;;;;;;1.67;0.00;;;25.30;99.90;;;;;;4996194;28;20037;-74
2023/07/12 12:25:30;;;;;;;1.77;0.13;;;24.90;99.90;;;;;;5014710;28;20049;-74
2023/07/12 12:27:56;;;;;;;3.22;0.30;;;24.80;99.90;;;;;;5014481;28;20053;-74
2023/07/12 12:30:25;;;;;;;2.40;0.25;;;25.00;99.90;;;;;;5014366;28;20110;-74
2023/07/12 12:32:55;;;;;;;4.45;0.10;;;25.20;99.90;;;;;;5014276;28;20493;-74
2023/07/12 12:35:21;;;;;;;1.67;0.13;;;25.40;99.70;;;;;;5014308;28;20022;-74
2023/07/12 12:38:11;;;;;;;1.77;0.00;;;25.20;99.90;;;;;;5014200;28;20386;-74
2023/07/12 12:40:46;;;;;;;1.65;0.10;;;24.90;99.90;;;;;;5014876;28;20030;-74
2023/07/12 12:43:17;;;;;;;2.13;0.08;;;24.80;99.90;;;;;;4996414;28;20469;-74
2023/07/12 12:45:43;;;;;;;0.85;0.00;;;24.80;99.90;;;;;;5014172;28;20021;-74
2023/07/12 12:48:11;;;;;;;2.83;0.20;;;24.80;99.90;;;;;;5014035;28;20026;-74
2023/07/12 12:50:37;;;;;;;1.13;0.10;;;25.00;99.90;;;;;;5014518;28;20034;-74
2023/07/12 12:53:04;;;;;;;3.90;0.10;;;24.80;99.90;;;;;;5014426;28;20095;-74
2023/07/12 12:55:33;;;;;;;3.42;0.00;;;25.00;99.90;;;;;;5013982;28;20497;-74
2023/07/12 12:57:59;;;;;;;1.83;0.13;;;25.30;98.80;;;;;;5013834;28;20097;-74
2023/07/12 13:00:27;;;;;;;0.52;0.00;;;25.70;96.80;;;;;;5013897;28;20076;-74